sensor_id;sensor_type;location;lat;lon;timestamp;pressure;altitude;pressure_sealevel;temperature
70415;BMP280;57837;52.064;113.478;2022-10-30T00:00:04;93701.44;;;2.60
70415;BMP280;57837;52.064;113.478;2022-10-30T00:03:14;93709.84;;;2.53
70415;BMP280;57837;52.064;113.478;2022-10-30T00:06:18;93710.63;;;2.47
70415;BMP280;57837;52.064;113.478;2022-10-30T00:09:22;93710.22;;;2.55
70415;BMP280;57837;52.064;113.478;2022-10-30T00:12:25;93712.41;;;2.57
70415;BMP280;57837;52.064;113.478;2022-10-30T00:15:29;93715.69;;;2.57
70415;BMP280;57837;52.064;113.478;2022-10-30T00:18:36;93706.91;;;2.58
70415;BMP280;57837;52.064;113.478;2022-10-30T00:21:41;93711.66;;;2.60
70415;BMP280;57837;52.064;113.478;2022-10-30T00:24:44;93713.47;;;2.63
70415;BMP280;57837;52.064;113.478;2022-10-30T00:27:48;93711.56;;;2.70
70415;BMP280;57837;52.064;113.478;2022-10-30T00:30:51;93715.47;;;2.82
70415;BMP280;57837;52.064;113.478;2022-10-30T00:33:54;93706.22;;;2.99
70415;BMP280;57837;52.064;113.478;2022-10-30T00:36:58;93708.25;;;3.18
70415;BMP280;57837;52.064;113.478;2022-10-30T00:40:03;93709.50;;;3.37
70415;BMP280;57837;52.064;113.478;2022-10-30T00:43:30;93707.78;;;3.61
70415;BMP280;57837;52.064;113.478;2022-10-30T00:46:36;93709.38;;;3.81
70415;BMP280;57837;52.064;113.478;2022-10-30T00:50:05;93715.97;;;3.82
70415;BMP280;57837;52.064;113.478;2022-10-30T00:53:13;93715.16;;;3.85
70415;BMP280;57837;52.064;113.478;2022-10-30T00:56:21;93708.94;;;3.86
70415;BMP280;57837;52.064;113.478;2022-10-30T00:59:27;93712.19;;;3.91
70415;BMP280;57837;52.064;113.478;2022-10-30T01:02:32;93704.84;;;3.93
70415;BMP280;57837;52.064;113.478;2022-10-30T01:05:37;93706.41;;;3.83
70415;BMP280;57837;52.064;113.478;2022-10-30T01:08:42;93712.06;;;3.71
70415;BMP280;57837;52.064;113.478;2022-10-30T01:11:46;93705.72;;;3.82
70415;BMP280;57837;52.064;113.478;2022-10-30T01:14:54;93697.44;;;3.98
70415;BMP280;57837;52.064;113.478;2022-10-30T01:31:50;93691.47;;;4.82
70415;BMP280;57837;52.064;113.478;2022-10-30T01:35:04;93691.13;;;4.56
70415;BMP280;57837;52.064;113.478;2022-10-30T01:41:18;93691.91;;;4.30
70415;BMP280;57837;52.064;113.478;2022-10-30T01:44:30;93692.97;;;4.33
70415;BMP280;57837;52.064;113.478;2022-10-30T01:47:40;93689.91;;;4.41
70415;BMP280;57837;52.064;113.478;2022-10-30T02:00:30;93672.63;;;4.45
70415;BMP280;57837;52.064;113.478;2022-10-30T02:03:35;93678.56;;;4.39
70415;BMP280;57837;52.064;113.478;2022-10-30T02:06:39;93672.34;;;4.40
70415;BMP280;57837;52.064;113.478;2022-10-30T02:09:44;93673.69;;;4.48
70415;BMP280;57837;52.064;113.478;2022-10-30T02:12:49;93677.78;;;4.69
70415;BMP280;57837;52.064;113.478;2022-10-30T02:15:52;93676.03;;;4.85
70415;BMP280;57837;52.064;113.478;2022-10-30T02:18:56;93671.91;;;4.91
70415;BMP280;57837;52.064;113.478;2022-10-30T02:22:00;93668.81;;;5.00
70415;BMP280;57837;52.064;113.478;2022-10-30T02:25:04;93670.50;;;5.26
70415;BMP280;57837;52.064;113.478;2022-10-30T02:28:08;93666.75;;;5.71
70415;BMP280;57837;52.064;113.478;2022-10-30T02:31:12;93671.44;;;5.92
70415;BMP280;57837;52.064;113.478;2022-10-30T02:34:16;93664.91;;;6.03
70415;BMP280;57837;52.064;113.478;2022-10-30T02:37:20;93670.38;;;5.89
70415;BMP280;57837;52.064;113.478;2022-10-30T02:40:23;93667.88;;;5.69
70415;BMP280;57837;52.064;113.478;2022-10-30T02:43:26;93670.13;;;5.67
70415;BMP280;57837;52.064;113.478;2022-10-30T02:46:29;93668.28;;;5.68
70415;BMP280;57837;52.064;113.478;2022-10-30T02:49:32;93671.16;;;5.70
70415;BMP280;57837;52.064;113.478;2022-10-30T02:52:36;93672.50;;;5.75
70415;BMP280;57837;52.064;113.478;2022-10-30T02:55:39;93671.03;;;5.93
70415;BMP280;57837;52.064;113.478;2022-10-30T02:58:43;93660.38;;;6.11
70415;BMP280;57837;52.064;113.478;2022-10-30T03:01:47;93659.00;;;6.23
70415;BMP280;57837;52.064;113.478;2022-10-30T03:04:50;93663.97;;;6.30
70415;BMP280;57837;52.064;113.478;2022-10-30T03:07:53;93660.91;;;6.35
70415;BMP280;57837;52.064;113.478;2022-10-30T03:11:08;93658.88;;;6.59
70415;BMP280;57837;52.064;113.478;2022-10-30T03:14:12;93656.25;;;6.91
70415;BMP280;57837;52.064;113.478;2022-10-30T03:17:17;93655.34;;;6.98
70415;BMP280;57837;52.064;113.478;2022-10-30T03:20:23;93645.41;;;7.25
70415;BMP280;57837;52.064;113.478;2022-10-30T03:23:27;93649.56;;;7.35
70415;BMP280;57837;52.064;113.478;2022-10-30T03:26:31;93643.00;;;7.85
70415;BMP280;57837;52.064;113.478;2022-10-30T03:29:39;93642.25;;;7.97
70415;BMP280;57837;52.064;113.478;2022-10-30T03:32:43;93645.00;;;8.03
70415;BMP280;57837;52.064;113.478;2022-10-30T03:35:46;93631.34;;;8.27
70415;BMP280;57837;52.064;113.478;2022-10-30T03:38:50;93634.28;;;8.51
70415;BMP280;57837;52.064;113.478;2022-10-30T03:41:54;93629.59;;;8.37
70415;BMP280;57837;52.064;113.478;2022-10-30T03:44:57;93630.31;;;8.38
70415;BMP280;57837;52.064;113.478;2022-10-30T03:48:05;93625.81;;;8.51
70415;BMP280;57837;52.064;113.478;2022-10-30T03:51:08;93632.66;;;8.45
70415;BMP280;57837;52.064;113.478;2022-10-30T03:54:12;93628.56;;;8.34
70415;BMP280;57837;52.064;113.478;2022-10-30T03:57:15;93631.94;;;7.97
70415;BMP280;57837;52.064;113.478;2022-10-30T04:00:36;93632.91;;;7.65
70415;BMP280;57837;52.064;113.478;2022-10-30T04:03:40;93631.81;;;7.25
70415;BMP280;57837;52.064;113.478;2022-10-30T04:06:46;93633.22;;;7.13
70415;BMP280;57837;52.064;113.478;2022-10-30T04:09:50;93625.19;;;7.11
70415;BMP280;57837;52.064;113.478;2022-10-30T04:13:04;93623.50;;;7.33
70415;BMP280;57837;52.064;113.478;2022-10-30T04:16:10;93631.41;;;7.26
70415;BMP280;57837;52.064;113.478;2022-10-30T04:19:14;93624.50;;;7.10
70415;BMP280;57837;52.064;113.478;2022-10-30T04:22:19;93626.38;;;7.35
70415;BMP280;57837;52.064;113.478;2022-10-30T04:25:23;93615.78;;;7.33
70415;BMP280;57837;52.064;113.478;2022-10-30T04:28:26;93616.59;;;7.55
70415;BMP280;57837;52.064;113.478;2022-10-30T04:31:31;93619.28;;;7.39
70415;BMP280;57837;52.064;113.478;2022-10-30T04:34:35;93618.63;;;7.22
70415;BMP280;57837;52.064;113.478;2022-10-30T04:37:42;93609.56;;;7.05
70415;BMP280;57837;52.064;113.478;2022-10-30T04:40:47;93615.28;;;6.97
70415;BMP280;57837;52.064;113.478;2022-10-30T04:43:51;93611.50;;;7.01
70415;BMP280;57837;52.064;113.478;2022-10-30T04:46:55;93613.16;;;6.95
70415;BMP280;57837;52.064;113.478;2022-10-30T04:50:00;93613.38;;;6.84
70415;BMP280;57837;52.064;113.478;2022-10-30T04:53:12;93616.91;;;6.78
70415;BMP280;57837;52.064;113.478;2022-10-30T04:56:16;93619.50;;;6.62
70415;BMP280;57837;52.064;113.478;2022-10-30T04:59:19;93617.22;;;6.35
70415;BMP280;57837;52.064;113.478;2022-10-30T05:02:25;93612.00;;;6.38
70415;BMP280;57837;52.064;113.478;2022-10-30T05:05:29;93603.59;;;6.67
70415;BMP280;57837;52.064;113.478;2022-10-30T05:08:33;93615.88;;;6.59
70415;BMP280;57837;52.064;113.478;2022-10-30T05:11:45;93610.97;;;6.36
70415;BMP280;57837;52.064;113.478;2022-10-30T05:14:49;93613.69;;;6.29
70415;BMP280;57837;52.064;113.478;2022-10-30T05:17:52;93603.84;;;6.11
70415;BMP280;57837;52.064;113.478;2022-10-30T05:20:55;93601.44;;;5.88
70415;BMP280;57837;52.064;113.478;2022-10-30T05:23:59;93602.84;;;6.05
70415;BMP280;57837;52.064;113.478;2022-10-30T05:27:07;93597.59;;;5.96
70415;BMP280;57837;52.064;113.478;2022-10-30T05:30:10;93598.56;;;5.69
70415;BMP280;57837;52.064;113.478;2022-10-30T05:33:15;93605.66;;;5.62
70415;BMP280;57837;52.064;113.478;2022-10-30T05:36:20;93603.06;;;5.46
70415;BMP280;57837;52.064;113.478;2022-10-30T05:39:23;93600.69;;;5.19
70415;BMP280;57837;52.064;113.478;2022-10-30T05:42:27;93608.53;;;5.28
70415;BMP280;57837;52.064;113.478;2022-10-30T05:45:34;93608.69;;;5.21
70415;BMP280;57837;52.064;113.478;2022-10-30T05:48:38;93608.31;;;5.22
70415;BMP280;57837;52.064;113.478;2022-10-30T05:51:43;93602.78;;;5.24
70415;BMP280;57837;52.064;113.478;2022-10-30T05:54:46;93603.81;;;5.26
70415;BMP280;57837;52.064;113.478;2022-10-30T05:58:02;93599.72;;;5.29
70415;BMP280;57837;52.064;113.478;2022-10-30T06:01:07;93601.66;;;5.25
70415;BMP280;57837;52.064;113.478;2022-10-30T06:04:20;93606.34;;;5.10
70415;BMP280;57837;52.064;113.478;2022-10-30T06:07:23;93607.66;;;4.99
70415;BMP280;57837;52.064;113.478;2022-10-30T06:10:27;93605.81;;;4.99
70415;BMP280;57837;52.064;113.478;2022-10-30T06:13:48;93608.13;;;5.13
70415;BMP280;57837;52.064;113.478;2022-10-30T06:16:56;93611.41;;;5.50
70415;BMP280;57837;52.064;113.478;2022-10-30T06:20:27;93609.69;;;5.63
70415;BMP280;57837;52.064;113.478;2022-10-30T06:23:49;93618.81;;;5.64
70415;BMP280;57837;52.064;113.478;2022-10-30T06:27:10;93604.38;;;5.54
70415;BMP280;57837;52.064;113.478;2022-10-30T06:30:13;93610.59;;;5.37
70415;BMP280;57837;52.064;113.478;2022-10-30T06:33:17;93610.44;;;5.44
70415;BMP280;57837;52.064;113.478;2022-10-30T06:36:24;93608.28;;;5.58
70415;BMP280;57837;52.064;113.478;2022-10-30T06:39:31;93608.38;;;5.39
70415;BMP280;57837;52.064;113.478;2022-10-30T06:43:00;93608.31;;;5.22
70415;BMP280;57837;52.064;113.478;2022-10-30T06:46:10;93612.72;;;5.22
70415;BMP280;57837;52.064;113.478;2022-10-30T06:49:16;93610.81;;;5.26
70415;BMP280;57837;52.064;113.478;2022-10-30T06:52:19;93609.31;;;5.09
70415;BMP280;57837;52.064;113.478;2022-10-30T06:55:28;93608.19;;;5.10
70415;BMP280;57837;52.064;113.478;2022-10-30T06:58:45;93607.50;;;5.25
70415;BMP280;57837;52.064;113.478;2022-10-30T07:02:10;93612.38;;;5.20
70415;BMP280;57837;52.064;113.478;2022-10-30T07:05:19;93614.31;;;5.16
70415;BMP280;57837;52.064;113.478;2022-10-30T07:08:22;93616.19;;;5.12
70415;BMP280;57837;52.064;113.478;2022-10-30T07:11:26;93615.88;;;5.10
70415;BMP280;57837;52.064;113.478;2022-10-30T07:14:50;93612.94;;;5.27
70415;BMP280;57837;52.064;113.478;2022-10-30T07:18:12;93617.59;;;5.52
70415;BMP280;57837;52.064;113.478;2022-10-30T07:21:16;93618.91;;;5.77
70415;BMP280;57837;52.064;113.478;2022-10-30T07:24:19;93616.63;;;5.98
70415;BMP280;57837;52.064;113.478;2022-10-30T07:27:50;93616.28;;;6.13
70415;BMP280;57837;52.064;113.478;2022-10-30T07:31:23;93620.22;;;6.17
70415;BMP280;57837;52.064;113.478;2022-10-30T07:35:05;93623.44;;;6.21
70415;BMP280;57837;52.064;113.478;2022-10-30T07:38:26;93619.66;;;6.10
70415;BMP280;57837;52.064;113.478;2022-10-30T07:41:38;93625.88;;;5.76
70415;BMP280;57837;52.064;113.478;2022-10-30T07:44:59;93620.88;;;5.53
70415;BMP280;57837;52.064;113.478;2022-10-30T07:48:09;93626.91;;;5.46
70415;BMP280;57837;52.064;113.478;2022-10-30T07:51:19;93624.97;;;5.50
70415;BMP280;57837;52.064;113.478;2022-10-30T07:54:23;93628.59;;;5.53
70415;BMP280;57837;52.064;113.478;2022-10-30T07:57:30;93630.28;;;5.59
70415;BMP280;57837;52.064;113.478;2022-10-30T08:00:54;93628.69;;;5.65
70415;BMP280;57837;52.064;113.478;2022-10-30T08:04:05;93637.97;;;5.59
70415;BMP280;57837;52.064;113.478;2022-10-30T08:07:10;93637.56;;;5.45
70415;BMP280;57837;52.064;113.478;2022-10-30T08:10:14;93647.63;;;5.36
70415;BMP280;57837;52.064;113.478;2022-10-30T08:13:18;93645.13;;;5.32
70415;BMP280;57837;52.064;113.478;2022-10-30T08:16:21;93640.94;;;5.22
70415;BMP280;57837;52.064;113.478;2022-10-30T08:19:25;93650.66;;;5.11
70415;BMP280;57837;52.064;113.478;2022-10-30T08:22:28;93657.03;;;5.03
70415;BMP280;57837;52.064;113.478;2022-10-30T08:25:35;93645.28;;;5.05
70415;BMP280;57837;52.064;113.478;2022-10-30T08:28:38;93653.09;;;4.98
70415;BMP280;57837;52.064;113.478;2022-10-30T08:31:48;93654.81;;;4.85
70415;BMP280;57837;52.064;113.478;2022-10-30T08:34:56;93658.47;;;4.84
70415;BMP280;57837;52.064;113.478;2022-10-30T08:38:02;93661.00;;;4.87
70415;BMP280;57837;52.064;113.478;2022-10-30T08:41:07;93655.13;;;4.87
70415;BMP280;57837;52.064;113.478;2022-10-30T08:44:18;93658.88;;;4.82
70415;BMP280;57837;52.064;113.478;2022-10-30T08:47:43;93661.94;;;4.74
70415;BMP280;57837;52.064;113.478;2022-10-30T08:50:48;93673.41;;;4.66
70415;BMP280;57837;52.064;113.478;2022-10-30T08:53:59;93666.44;;;4.66
70415;BMP280;57837;52.064;113.478;2022-10-30T08:57:02;93665.81;;;4.62
70415;BMP280;57837;52.064;113.478;2022-10-30T09:00:06;93669.47;;;4.61
70415;BMP280;57837;52.064;113.478;2022-10-30T09:03:30;93669.47;;;4.61
70415;BMP280;57837;52.064;113.478;2022-10-30T09:07:09;93673.66;;;4.51
70415;BMP280;57837;52.064;113.478;2022-10-30T09:10:33;93675.50;;;4.51
70415;BMP280;57837;52.064;113.478;2022-10-30T09:13:36;93680.72;;;4.44
70415;BMP280;57837;52.064;113.478;2022-10-30T09:16:40;93671.72;;;4.36
70415;BMP280;57837;52.064;113.478;2022-10-30T09:19:44;93679.44;;;4.32
70415;BMP280;57837;52.064;113.478;2022-10-30T09:22:52;93677.41;;;4.20
70415;BMP280;57837;52.064;113.478;2022-10-30T09:25:56;93678.56;;;4.15
70415;BMP280;57837;52.064;113.478;2022-10-30T09:29:25;93683.28;;;4.17
70415;BMP280;57837;52.064;113.478;2022-10-30T09:32:34;93681.78;;;4.19
70415;BMP280;57837;52.064;113.478;2022-10-30T09:35:43;93688.22;;;4.08
70415;BMP280;57837;52.064;113.478;2022-10-30T09:38:46;93690.38;;;4.09
70415;BMP280;57837;52.064;113.478;2022-10-30T09:49:12;93703.94;;;4.06
70415;BMP280;57837;52.064;113.478;2022-10-30T09:52:41;93701.44;;;4.03
70415;BMP280;57837;52.064;113.478;2022-10-30T09:55:50;93707.25;;;4.07
70415;BMP280;57837;52.064;113.478;2022-10-30T09:59:25;93704.59;;;4.10
70415;BMP280;57837;52.064;113.478;2022-10-30T10:02:55;93712.88;;;3.95
70415;BMP280;57837;52.064;113.478;2022-10-30T10:06:14;93720.56;;;3.95
70415;BMP280;57837;52.064;113.478;2022-10-30T10:09:35;93713.94;;;3.97
70415;BMP280;57837;52.064;113.478;2022-10-30T10:13:04;93708.03;;;4.00
70415;BMP280;57837;52.064;113.478;2022-10-30T10:16:37;93717.13;;;4.05
70415;BMP280;57837;52.064;113.478;2022-10-30T10:19:51;93720.81;;;4.04
70415;BMP280;57837;52.064;113.478;2022-10-30T10:22:57;93715.72;;;4.00
70415;BMP280;57837;52.064;113.478;2022-10-30T10:26:13;93719.53;;;3.89
70415;BMP280;57837;52.064;113.478;2022-10-30T10:36:54;93713.78;;;3.81
70415;BMP280;57837;52.064;113.478;2022-10-30T10:39:39;93720.09;;;3.73
70415;BMP280;57837;52.064;113.478;2022-10-30T10:52:39;93716.41;;;3.43
70415;BMP280;57837;52.064;113.478;2022-10-30T10:55:48;93724.09;;;3.40
70415;BMP280;57837;52.064;113.478;2022-10-30T10:58:57;93719.69;;;3.44
70415;BMP280;57837;52.064;113.478;2022-10-30T11:05:28;93723.81;;;3.31
70415;BMP280;57837;52.064;113.478;2022-10-30T11:08:33;93723.31;;;3.46
70415;BMP280;57837;52.064;113.478;2022-10-30T11:11:40;93720.56;;;3.61
70415;BMP280;57837;52.064;113.478;2022-10-30T11:14:43;93723.41;;;3.70
70415;BMP280;57837;52.064;113.478;2022-10-30T11:18:05;93717.25;;;3.64
70415;BMP280;57837;52.064;113.478;2022-10-30T11:21:20;93720.75;;;3.46
70415;BMP280;57837;52.064;113.478;2022-10-30T11:27:32;93726.09;;;3.56
70415;BMP280;57837;52.064;113.478;2022-10-30T11:30:36;93718.44;;;3.56
70415;BMP280;57837;52.064;113.478;2022-10-30T11:33:39;93730.66;;;3.41
70415;BMP280;57837;52.064;113.478;2022-10-30T11:36:50;93733.28;;;3.34
70415;BMP280;57837;52.064;113.478;2022-10-30T11:43:13;93728.91;;;3.31
70415;BMP280;57837;52.064;113.478;2022-10-30T11:46:22;93728.97;;;3.27
70415;BMP280;57837;52.064;113.478;2022-10-30T11:49:59;93736.56;;;3.34
70415;BMP280;57837;52.064;113.478;2022-10-30T11:53:27;93729.22;;;3.40
70415;BMP280;57837;52.064;113.478;2022-10-30T11:56:34;93723.75;;;3.38
70415;BMP280;57837;52.064;113.478;2022-10-30T11:59:37;93735.84;;;3.34
70415;BMP280;57837;52.064;113.478;2022-10-30T12:02:43;93726.69;;;3.36
70415;BMP280;57837;52.064;113.478;2022-10-30T12:05:47;93728.38;;;3.50
70415;BMP280;57837;52.064;113.478;2022-10-30T12:09:21;93734.13;;;3.58
70415;BMP280;57837;52.064;113.478;2022-10-30T12:12:41;93726.59;;;3.47
70415;BMP280;57837;52.064;113.478;2022-10-30T12:15:48;93729.22;;;3.40
70415;BMP280;57837;52.064;113.478;2022-10-30T12:22:00;93731.28;;;3.14
70415;BMP280;57837;52.064;113.478;2022-10-30T12:25:30;93737.03;;;3.26
70415;BMP280;57837;52.064;113.478;2022-10-30T12:28:34;93732.19;;;3.31
70415;BMP280;57837;52.064;113.478;2022-10-30T12:31:42;93738.72;;;3.39
70415;BMP280;57837;52.064;113.478;2022-10-30T12:35:03;93736.09;;;3.46
70415;BMP280;57837;52.064;113.478;2022-10-30T12:38:28;93748.84;;;3.50
70415;BMP280;57837;52.064;113.478;2022-10-30T12:45:03;93743.44;;;3.44
70415;BMP280;57837;52.064;113.478;2022-10-30T13:01:37;93743.00;;;3.49
70415;BMP280;57837;52.064;113.478;2022-10-30T13:04:48;93753.72;;;3.37
70415;BMP280;57837;52.064;113.478;2022-10-30T13:08:01;93745.66;;;3.39
70415;BMP280;57837;52.064;113.478;2022-10-30T13:14:35;93745.38;;;3.30
70415;BMP280;57837;52.064;113.478;2022-10-30T13:17:40;93747.78;;;3.06
70415;BMP280;57837;52.064;113.478;2022-10-30T13:27:58;93748.59;;;2.96
70415;BMP280;57837;52.064;113.478;2022-10-30T13:34:55;93751.41;;;3.09
70415;BMP280;57837;52.064;113.478;2022-10-30T13:41:41;93747.63;;;3.24
70415;BMP280;57837;52.064;113.478;2022-10-30T13:48:14;93744.13;;;3.04
70415;BMP280;57837;52.064;113.478;2022-10-30T13:54:43;93748.88;;;3.05
70415;BMP280;57837;52.064;113.478;2022-10-30T14:01:23;93754.06;;;2.98
70415;BMP280;57837;52.064;113.478;2022-10-30T14:08:02;93752.81;;;3.17
70415;BMP280;57837;52.064;113.478;2022-10-30T14:11:10;93760.75;;;3.26
70415;BMP280;57837;52.064;113.478;2022-10-30T14:14:28;93761.19;;;3.21
70415;BMP280;57837;52.064;113.478;2022-10-30T14:17:31;93759.38;;;3.22
70415;BMP280;57837;52.064;113.478;2022-10-30T14:23:42;93763.44;;;3.16
70415;BMP280;57837;52.064;113.478;2022-10-30T14:27:13;93771.88;;;3.09
70415;BMP280;57837;52.064;113.478;2022-10-30T14:30:20;93772.94;;;3.11
70415;BMP280;57837;52.064;113.478;2022-10-30T14:33:44;93764.06;;;3.23
70415;BMP280;57837;52.064;113.478;2022-10-30T14:36:48;93757.56;;;3.19
70415;BMP280;57837;52.064;113.478;2022-10-30T14:39:53;93767.06;;;3.18
70415;BMP280;57837;52.064;113.478;2022-10-30T14:43:01;93760.47;;;3.21
70415;BMP280;57837;52.064;113.478;2022-10-30T14:46:23;93769.66;;;3.11
70415;BMP280;57837;52.064;113.478;2022-10-30T14:49:39;93768.56;;;3.12
70415;BMP280;57837;52.064;113.478;2022-10-30T14:59:30;93759.53;;;3.00
70415;BMP280;57837;52.064;113.478;2022-10-30T15:02:42;93761.00;;;2.98
70415;BMP280;57837;52.064;113.478;2022-10-30T15:05:56;93766.78;;;3.02
70415;BMP280;57837;52.064;113.478;2022-10-30T15:13:16;93763.19;;;2.99
70415;BMP280;57837;52.064;113.478;2022-10-30T15:16:22;93761.06;;;2.91
70415;BMP280;57837;52.064;113.478;2022-10-30T15:19:26;93762.56;;;2.85
70415;BMP280;57837;52.064;113.478;2022-10-30T15:22:31;93760.72;;;2.89
70415;BMP280;57837;52.064;113.478;2022-10-30T15:25:47;93762.47;;;2.99
70415;BMP280;57837;52.064;113.478;2022-10-30T15:28:51;93757.78;;;2.94
70415;BMP280;57837;52.064;113.478;2022-10-30T15:32:03;93760.41;;;2.79
70415;BMP280;57837;52.064;113.478;2022-10-30T15:35:17;93760.78;;;2.78
70415;BMP280;57837;52.064;113.478;2022-10-30T15:38:21;93758.22;;;2.78
70415;BMP280;57837;52.064;113.478;2022-10-30T15:41:24;93764.81;;;2.75
70415;BMP280;57837;52.064;113.478;2022-10-30T15:44:31;93765.53;;;2.76
70415;BMP280;57837;52.064;113.478;2022-10-30T15:47:35;93757.81;;;2.87
70415;BMP280;57837;52.064;113.478;2022-10-30T15:50:44;93753.81;;;2.82
70415;BMP280;57837;52.064;113.478;2022-10-30T15:53:59;93749.81;;;2.81
70415;BMP280;57837;52.064;113.478;2022-10-30T15:57:04;93754.22;;;2.73
70415;BMP280;57837;52.064;113.478;2022-10-30T16:00:34;93755.38;;;2.69
70415;BMP280;57837;52.064;113.478;2022-10-30T16:03:38;93759.31;;;2.77
70415;BMP280;57837;52.064;113.478;2022-10-30T16:07:14;93761.53;;;2.75
70415;BMP280;57837;52.064;113.478;2022-10-30T16:10:19;93760.88;;;2.64
70415;BMP280;57837;52.064;113.478;2022-10-30T16:13:28;93750.63;;;2.71
70415;BMP280;57837;52.064;113.478;2022-10-30T16:16:33;93750.72;;;2.57
70415;BMP280;57837;52.064;113.478;2022-10-30T16:19:44;93761.59;;;2.64
70415;BMP280;57837;52.064;113.478;2022-10-30T16:22:52;93764.88;;;2.65
70415;BMP280;57837;52.064;113.478;2022-10-30T16:25:57;93763.47;;;2.60
70415;BMP280;57837;52.064;113.478;2022-10-30T16:32:18;93768.94;;;2.59
70415;BMP280;57837;52.064;113.478;2022-10-30T16:35:24;93769.34;;;2.50
70415;BMP280;57837;52.064;113.478;2022-10-30T16:38:32;93770.78;;;2.58
70415;BMP280;57837;52.064;113.478;2022-10-30T16:41:36;93769.03;;;2.45
70415;BMP280;57837;52.064;113.478;2022-10-30T16:44:41;93766.50;;;2.41
70415;BMP280;57837;52.064;113.478;2022-10-30T16:47:50;93771.22;;;2.42
70415;BMP280;57837;52.064;113.478;2022-10-30T16:51:02;93768.34;;;2.37
70415;BMP280;57837;52.064;113.478;2022-10-30T16:54:20;93779.63;;;2.43
70415;BMP280;57837;52.064;113.478;2022-10-30T16:57:27;93782.91;;;2.40
70415;BMP280;57837;52.064;113.478;2022-10-30T17:00:32;93775.94;;;2.48
70415;BMP280;57837;52.064;113.478;2022-10-30T17:03:40;93779.22;;;2.48
70415;BMP280;57837;52.064;113.478;2022-10-30T17:06:44;93780.00;;;2.38
70415;BMP280;57837;52.064;113.478;2022-10-30T17:09:49;93789.84;;;2.36
70415;BMP280;57837;52.064;113.478;2022-10-30T17:13:31;93789.50;;;2.37
70415;BMP280;57837;52.064;113.478;2022-10-30T17:16:36;93799.03;;;2.26
70415;BMP280;57837;52.064;113.478;2022-10-30T17:19:46;93794.66;;;2.20
70415;BMP280;57837;52.064;113.478;2022-10-30T17:23:03;93789.22;;;2.18
70415;BMP280;57837;52.064;113.478;2022-10-30T17:26:08;93796.47;;;2.26
70415;BMP280;57837;52.064;113.478;2022-10-30T17:32:43;93804.88;;;2.20
70415;BMP280;57837;52.064;113.478;2022-10-30T17:35:48;93798.72;;;2.14
70415;BMP280;57837;52.064;113.478;2022-10-30T17:38:51;93806.38;;;2.14
70415;BMP280;57837;52.064;113.478;2022-10-30T17:41:56;93805.66;;;2.06
70415;BMP280;57837;52.064;113.478;2022-10-30T17:44:59;93811.13;;;2.08
70415;BMP280;57837;52.064;113.478;2022-10-30T17:48:13;93808.59;;;1.97
70415;BMP280;57837;52.064;113.478;2022-10-30T17:51:18;93804.94;;;1.98
70415;BMP280;57837;52.064;113.478;2022-10-30T17:54:23;93807.88;;;1.93
70415;BMP280;57837;52.064;113.478;2022-10-30T17:57:27;93808.63;;;1.87
70415;BMP280;57837;52.064;113.478;2022-10-30T18:00:32;93811.59;;;1.82
70415;BMP280;57837;52.064;113.478;2022-10-30T18:03:35;93806.09;;;1.87
70415;BMP280;57837;52.064;113.478;2022-10-30T18:06:40;93819.16;;;1.96
70415;BMP280;57837;52.064;113.478;2022-10-30T18:09:43;93812.25;;;1.93
70415;BMP280;57837;52.064;113.478;2022-10-30T18:12:47;93823.22;;;1.90
70415;BMP280;57837;52.064;113.478;2022-10-30T18:15:56;93824.66;;;1.94
70415;BMP280;57837;52.064;113.478;2022-10-30T18:19:00;93815.53;;;1.93
70415;BMP280;57837;52.064;113.478;2022-10-30T18:22:04;93827.19;;;1.94
70415;BMP280;57837;52.064;113.478;2022-10-30T18:28:19;93806.44;;;1.89
70415;BMP280;57837;52.064;113.478;2022-10-30T18:31:23;93813.03;;;1.79
70415;BMP280;57837;52.064;113.478;2022-10-30T18:34:27;93822.53;;;1.75
70415;BMP280;57837;52.064;113.478;2022-10-30T18:37:30;93812.31;;;1.79
70415;BMP280;57837;52.064;113.478;2022-10-30T18:40:34;93813.03;;;1.86
70415;BMP280;57837;52.064;113.478;2022-10-30T18:43:39;93817.38;;;1.89
70415;BMP280;57837;52.064;113.478;2022-10-30T18:46:48;93818.47;;;1.88
70415;BMP280;57837;52.064;113.478;2022-10-30T18:49:54;93828.69;;;1.88
70415;BMP280;57837;52.064;113.478;2022-10-30T18:52:59;93820.66;;;1.90
70415;BMP280;57837;52.064;113.478;2022-10-30T18:56:04;93829.09;;;1.80
70415;BMP280;57837;52.064;113.478;2022-10-30T18:59:08;93826.16;;;1.74
70415;BMP280;57837;52.064;113.478;2022-10-30T19:02:22;93815.63;;;1.58
70415;BMP280;57837;52.064;113.478;2022-10-30T19:08:30;93813.06;;;1.58
70415;BMP280;57837;52.064;113.478;2022-10-30T19:11:33;93817.06;;;1.66
70415;BMP280;57837;52.064;113.478;2022-10-30T19:14:41;93817.81;;;1.49
70415;BMP280;57837;52.064;113.478;2022-10-30T19:17:44;93821.44;;;1.37
70415;BMP280;57837;52.064;113.478;2022-10-30T19:20:48;93813.78;;;1.37
70415;BMP280;57837;52.064;113.478;2022-10-30T19:24:11;93815.28;;;1.31
70415;BMP280;57837;52.064;113.478;2022-10-30T19:27:16;93818.94;;;1.30
70415;BMP280;57837;52.064;113.478;2022-10-30T19:30:20;93810.94;;;1.31
70415;BMP280;57837;52.064;113.478;2022-10-30T19:33:24;93810.19;;;1.31
70415;BMP280;57837;52.064;113.478;2022-10-30T19:39:32;93817.84;;;1.20
70415;BMP280;57837;52.064;113.478;2022-10-30T19:42:36;93817.84;;;1.24
70415;BMP280;57837;52.064;113.478;2022-10-30T19:45:39;93817.47;;;1.36
70415;BMP280;57837;52.064;113.478;2022-10-30T19:48:43;93812.69;;;1.38
70415;BMP280;57837;52.064;113.478;2022-10-30T19:52:03;93811.63;;;1.50
70415;BMP280;57837;52.064;113.478;2022-10-30T19:55:07;93817.06;;;1.41
70415;BMP280;57837;52.064;113.478;2022-10-30T19:58:13;93817.09;;;1.20
70415;BMP280;57837;52.064;113.478;2022-10-30T20:01:17;93813.81;;;1.12
70415;BMP280;57837;52.064;113.478;2022-10-30T20:04:20;93817.84;;;1.06
70415;BMP280;57837;52.064;113.478;2022-10-30T20:07:25;93811.28;;;1.09
70415;BMP280;57837;52.064;113.478;2022-10-30T20:10:31;93818.19;;;1.01
70415;BMP280;57837;52.064;113.478;2022-10-30T20:13:35;93817.81;;;1.10